Time;durP1;ratioP1;P1;durP2;ratioP2;P2;SDS_P1;SDS_P2;PMS_P1;PMS_P2;Temp;Humidity;BMP_temperature;BMP_pressure;BME280_temperature;BME280_humidity;BME280_pressure;Samples;Min_cycle;Max_cycle;Signal;HPM_P1;HPM_P2
2022/04/11 00:02:01;;;;;;;8.88;3.15;;;;;;;3.51;100.00;101939.81;5048513;28;20476;-51
2022/04/11 00:04:30;;;;;;;7.25;2.88;;;;;;;3.43;100.00;101938.25;5046293;28;20053;-55
2022/04/11 00:06:59;;;;;;;9.35;3.60;;;;;;;3.48;100.00;101933.81;5048706;28;20496;-53
2022/04/11 00:09:27;;;;;;;8.27;3.17;;;;;;;3.51;100.00;101937.19;5048445;28;20098;-49
2022/04/11 00:11:56;;;;;;;7.72;2.97;;;;;;;3.46;100.00;101936.41;5049195;28;20052;-51
2022/04/11 00:14:24;;;;;;;6.95;3.25;;;;;;;3.43;100.00;101933.03;5048436;28;20472;-54
2022/04/11 00:16:52;;;;;;;6.03;3.22;;;;;;;3.35;100.00;101930.56;5048803;28;20047;-52
2022/04/11 00:19:21;;;;;;;6.57;2.92;;;;;;;3.40;100.00;101923.53;5046823;28;20045;-51
2022/04/11 00:21:49;;;;;;;6.35;2.97;;;;;;;3.38;100.00;101930.50;5048736;28;20079;-54
2022/04/11 00:24:19;;;;;;;7.15;3.63;;;;;;;3.35;100.00;101920.16;5048550;28;20056;-51
2022/04/11 00:26:47;;;;;;;6.25;3.20;;;;;;;3.36;100.00;101921.88;5048914;28;20059;-53
2022/04/11 00:29:15;;;;;;;7.80;2.92;;;;;;;3.40;100.00;101910.53;5048146;28;20103;-49
2022/04/11 00:31:43;;;;;;;8.23;3.13;;;;;;;3.33;100.00;101908.94;5048582;28;20047;-50
2022/04/11 00:34:11;;;;;;;7.75;2.95;;;;;;;3.19;100.00;101911.75;5046847;28;20051;-53
2022/04/11 00:36:39;;;;;;;7.38;3.13;;;;;;;3.21;100.00;101907.41;5047994;28;20052;-50
2022/04/11 00:39:07;;;;;;;7.18;3.03;;;;;;;3.18;100.00;101908.31;5047870;28;20049;-50
2022/04/11 00:41:37;;;;;;;6.30;3.10;;;;;;;3.22;100.00;101903.94;5048771;28;20063;-49
2022/04/11 00:44:06;;;;;;;8.10;3.20;;;;;;;3.19;100.00;101907.44;5048014;28;20053;-51
2022/04/11 00:46:34;;;;;;;9.63;3.47;;;;;;;3.20;100.00;101903.97;5048886;28;20063;-50
2022/04/11 00:49:02;;;;;;;7.28;3.65;;;;;;;3.20;100.00;101897.88;5046234;28;20068;-51
2022/04/11 00:51:31;;;;;;;8.38;3.42;;;;;;;3.12;100.00;101897.16;5048341;28;20563;-51
2022/04/11 00:54:00;;;;;;;8.15;3.47;;;;;;;3.11;100.00;101893.72;5048293;28;20049;-54
2022/04/11 00:56:30;;;;;;;7.65;3.45;;;;;;;3.13;100.00;101894.53;5048715;28;20052;-52
2022/04/11 00:59:01;;;;;;;7.18;3.03;;;;;;;3.12;100.00;101887.63;5046213;28;20072;-55
2022/04/11 01:01:30;;;;;;;8.85;3.53;;;;;;;3.10;100.00;101883.34;5048088;28;20053;-55
2022/04/11 01:03:58;;;;;;;7.93;3.35;;;;;;;3.11;100.00;101887.63;5046147;28;20055;-58
2022/04/11 01:06:27;;;;;;;8.77;3.60;;;;;;;3.12;100.00;101887.63;5047621;28;20049;-57
2022/04/11 01:08:56;;;;;;;8.27;3.50;;;;;;;3.11;100.00;101875.53;5048210;28;20053;-58
2022/04/11 01:11:24;;;;;;;7.60;3.63;;;;;;;3.11;100.00;101880.72;5048038;28;20080;-57
2022/04/11 01:13:53;;;;;;;7.43;3.30;;;;;;;3.19;100.00;101870.16;5048093;28;20053;-58
2022/04/11 01:16:29;;;;;;;8.25;3.83;;;;;;;3.12;100.00;101876.38;5047740;28;20055;-58
2022/04/11 01:18:57;;;;;;;10.35;3.60;;;;;;;3.08;100.00;101867.78;5046497;28;20361;-57
2022/04/11 01:21:28;;;;;;;6.25;3.50;;;;;;;3.00;100.00;101865.31;5046371;28;20073;-57
2022/04/11 01:23:56;;;;;;;8.23;3.45;;;;;;;3.01;100.00;101869.63;5048129;28;20110;-57
2022/04/11 01:26:27;;;;;;;10.10;3.30;;;;;;;2.95;100.00;101858.47;5047837;28;20080;-57
2022/04/11 01:28:56;;;;;;;7.55;3.60;;;;;;;2.86;100.00;101860.34;5047556;28;20567;-57
2022/04/11 01:31:25;;;;;;;9.00;3.65;;;;;;;2.88;100.00;101866.34;5047788;28;20423;-58
2022/04/11 01:33:53;;;;;;;10.73;4.35;;;;;;;2.97;100.00;101860.16;5046302;28;20049;-58
2022/04/11 01:36:21;;;;;;;9.73;3.70;;;;;;;2.94;100.00;101868.00;5047885;28;20072;-57
2022/04/11 01:38:51;;;;;;;10.80;3.65;;;;;;;2.94;100.00;101859.34;5047717;28;20056;-57
2022/04/11 01:41:20;;;;;;;11.32;3.85;;;;;;;2.93;100.00;101855.03;5046418;28;20067;-57
2022/04/11 01:43:49;;;;;;;8.55;3.50;;;;;;;2.96;100.00;101854.97;5051448;28;20045;-57
2022/04/11 01:46:17;;;;;;;8.82;3.95;;;;;;;2.96;100.00;101854.97;5051492;28;20154;-57
2022/04/11 01:48:45;;;;;;;9.30;4.15;;;;;;;2.99;100.00;101857.53;5049947;28;20041;-57
2022/04/11 01:51:14;;;;;;;7.90;3.45;;;;;;;3.00;100.00;101856.63;5051957;28;20049;-57
2022/04/11 01:53:42;;;;;;;7.78;3.83;;;;;;;2.91;100.00;101860.25;5051754;28;20495;-57
2022/04/11 01:56:11;;;;;;;7.43;3.63;;;;;;;2.94;100.00;101870.59;5051570;28;20055;-59
2022/04/11 01:58:39;;;;;;;8.05;3.50;;;;;;;2.97;100.00;101867.97;5051492;28;20040;-54
2022/04/11 02:01:08;;;;;;;9.35;3.63;;;;;;;2.93;100.00;101876.69;5051448;28;20570;-54
2022/04/11 02:03:36;;;;;;;6.57;3.00;;;;;;;2.92;100.00;101874.09;5049941;28;20048;-53
2022/04/11 02:06:04;;;;;;;9.02;3.70;;;;;;;2.97;100.00;101873.16;5051142;28;20462;-57
2022/04/11 02:08:32;;;;;;;7.75;3.65;;;;;;;3.00;100.00;101872.22;5050599;28;20049;-57
2022/04/11 02:11:00;;;;;;;8.13;3.25;;;;;;;3.00;100.00;101874.81;5050025;28;20476;-58
2022/04/11 02:13:30;;;;;;;6.65;3.60;;;;;;;2.96;100.00;101873.16;5051230;28;20056;-57
2022/04/11 02:15:59;;;;;;;10.35;3.42;;;;;;;2.93;100.00;101865.44;5051247;28;20052;-58
2022/04/11 02:18:27;;;;;;;10.85;3.28;;;;;;;2.92;100.00;101871.50;5049188;28;20049;-57
2022/04/11 02:20:56;;;;;;;6.40;3.20;;;;;;;2.91;100.00;101859.41;5051061;28;20041;-57
2022/04/11 02:23:24;;;;;;;7.03;3.30;;;;;;;2.85;100.00;101858.63;5051179;28;20071;-57
2022/04/11 02:25:52;;;;;;;8.32;3.65;;;;;;;2.84;100.00;101864.69;5051063;28;20098;-58
2022/04/11 02:28:21;;;;;;;6.22;3.13;;;;;;;2.86;100.00;101865.53;5050697;28;20106;-57
2022/04/11 02:30:51;;;;;;;6.80;3.13;;;;;;;2.81;100.00;101864.75;5050738;28;20128;-56
2022/04/11 02:33:20;;;;;;;8.30;3.58;;;;;;;2.86;100.00;101867.25;5049666;28;20056;-58
2022/04/11 02:35:48;;;;;;;7.03;3.25;;;;;;;2.88;100.00;101861.16;5051060;28;20662;-57
2022/04/11 02:38:16;;;;;;;6.63;3.25;;;;;;;2.74;100.00;101860.56;5050147;28;20053;-57
2022/04/11 02:40:46;;;;;;;9.35;3.33;;;;;;;2.74;100.00;101865.75;5049460;28;20132;-57
2022/04/11 02:43:14;;;;;;;7.72;3.35;;;;;;;2.75;100.00;101864.84;5050413;28;20053;-58
2022/04/11 02:45:42;;;;;;;7.40;3.17;;;;;;;2.77;100.00;101870.88;5050965;28;20040;-58
2022/04/11 02:48:11;;;;;;;8.55;3.45;;;;;;;2.76;100.00;101863.13;5048909;28;20501;-58
2022/04/11 02:50:39;;;;;;;7.38;3.47;;;;;;;2.77;100.00;101865.69;5051052;28;20091;-58
2022/04/11 02:53:07;;;;;;;7.35;3.28;;;;;;;2.76;100.00;101866.56;5049597;28;20060;-58
2022/04/11 02:55:35;;;;;;;6.53;3.47;;;;;;;2.77;100.00;101867.41;5050590;28;20114;-58
2022/04/11 02:58:04;;;;;;;7.97;3.33;;;;;;;2.72;100.00;101862.31;5048460;28;20072;-58
2022/04/11 03:00:32;;;;;;;7.43;3.60;;;;;;;2.64;100.00;101861.56;5050176;28;20563;-58
2022/04/11 03:03:00;;;;;;;9.15;4.30;;;;;;;2.66;100.00;101858.06;5048234;28;20064;-58
2022/04/11 03:05:29;;;;;;;8.90;3.90;;;;;;;2.63;100.00;101854.66;5050034;28;20103;-59
2022/04/11 03:07:57;;;;;;;9.85;3.60;;;;;;;2.59;100.00;101856.47;5050023;28;20069;-57
2022/04/11 03:10:25;;;;;;;7.22;3.78;;;;;;;2.50;100.00;101854.84;5050203;28;20044;-57
2022/04/11 03:12:53;;;;;;;7.88;3.65;;;;;;;2.53;100.00;101849.59;5048995;28;20048;-58
2022/04/11 03:15:21;;;;;;;7.57;4.07;;;;;;;2.51;100.00;101853.13;5049767;28;20128;-58
2022/04/11 03:17:49;;;;;;;7.35;4.22;;;;;;;2.50;100.00;101849.66;5048549;28;20662;-57
2022/04/11 03:20:18;;;;;;;7.25;4.18;;;;;;;2.48;100.00;101847.94;5049698;28;20341;-57
2022/04/11 03:22:47;;;;;;;8.38;3.85;;;;;;;2.45;100.00;101848.84;5048567;28;20136;-57
2022/04/11 03:25:16;;;;;;;8.77;3.67;;;;;;;2.44;100.00;101856.66;5049698;28;20044;-58
2022/04/11 03:27:44;;;;;;;8.43;4.10;;;;;;;2.39;100.00;101853.28;5049676;28;20124;-54
2022/04/11 03:30:12;;;;;;;8.57;4.22;;;;;;;2.40;100.00;101847.22;5049349;28;20061;-58
2022/04/11 03:32:40;;;;;;;9.45;4.22;;;;;;;2.43;100.00;101855.81;5048406;28;20053;-53
2022/04/11 03:35:09;;;;;;;9.95;4.10;;;;;;;2.40;100.00;101849.81;5048945;28;20055;-54
2022/04/11 03:37:37;;;;;;;8.27;3.75;;;;;;;2.34;100.00;101850.75;5048989;28;20111;-50
2022/04/11 03:40:08;;;;;;;8.93;4.18;;;;;;;2.32;100.00;101850.78;5049159;28;20041;-53
2022/04/11 03:42:37;;;;;;;9.05;3.83;;;;;;;2.29;100.00;101848.25;5049368;28;20087;-51
2022/04/11 03:45:08;;;;;;;10.07;3.83;;;;;;;2.34;100.00;101842.97;5049375;28;20060;-54
2022/04/11 03:47:36;;;;;;;14.20;3.92;;;;;;;2.32;100.00;101847.34;5048853;28;20056;-53
2022/04/11 03:50:05;;;;;;;10.25;4.40;;;;;;;2.26;100.00;101850.00;5049106;28;20110;-54
2022/04/11 03:52:33;;;;;;;11.15;4.43;;;;;;;2.20;100.00;101853.56;5049571;28;20048;-49
2022/04/11 03:55:03;;;;;;;8.38;3.92;;;;;;;2.20;100.00;101849.22;5049398;28;20102;-53
2022/04/11 03:57:33;;;;;;;9.27;4.07;;;;;;;2.23;100.00;101850.06;5049297;28;20052;-50
2022/04/11 04:00:01;;;;;;;8.70;4.10;;;;;;;2.17;100.00;101853.59;5048939;28;20049;-52
2022/04/11 04:02:29;;;;;;;7.65;4.20;;;;;;;2.13;100.00;101847.59;5049026;28;20053;-51
2022/04/11 04:04:58;;;;;;;7.97;4.07;;;;;;;2.13;100.00;101845.00;5047530;28;20567;-52
2022/04/11 04:07:26;;;;;;;10.57;4.50;;;;;;;2.13;100.00;101846.75;5048621;28;20044;-53
2022/04/11 04:09:54;;;;;;;8.07;4.20;;;;;;;2.05;100.00;101846.84;5047545;28;20079;-52
2022/04/11 04:12:23;;;;;;;8.68;4.38;;;;;;;2.00;100.00;101846.03;5048798;28;20049;-52
2022/04/11 04:14:52;;;;;;;9.13;4.32;;;;;;;2.05;100.00;101844.25;5047164;28;20061;-54
2022/04/11 04:17:20;;;;;;;8.85;4.30;;;;;;;2.04;100.00;101847.72;5048582;28;20048;-53
2022/04/11 04:19:48;;;;;;;10.77;4.88;;;;;;;2.10;100.00;101851.97;5047357;28;20503;-52
2022/04/11 04:22:17;;;;;;;8.43;3.95;;;;;;;2.05;100.00;101848.59;5048612;28;20045;-53
2022/04/11 04:24:44;;;;;;;11.23;4.72;;;;;;;2.02;100.00;101839.94;5047540;28;20098;-53
2022/04/11 04:27:13;;;;;;;10.55;4.40;;;;;;;2.00;100.00;101838.25;5047859;28;20044;-51
2022/04/11 04:29:41;;;;;;;8.50;4.50;;;;;;;2.01;100.00;101837.38;5048200;28;20045;-52
2022/04/11 04:32:10;;;;;;;11.43;4.70;;;;;;;2.01;100.00;101835.63;5048565;28;20048;-51
2022/04/11 04:34:38;;;;;;;10.90;4.53;;;;;;;1.99;100.00;101847.78;5047098;28;20044;-53
2022/04/11 04:37:08;;;;;;;8.35;4.60;;;;;;;1.97;100.00;101846.94;5048785;28;20098;-53
2022/04/11 04:39:36;;;;;;;8.40;4.60;;;;;;;1.98;100.00;101845.22;5048263;28;20060;-53
2022/04/11 04:42:06;;;;;;;10.35;5.22;;;;;;;1.99;100.00;101839.13;5047905;28;20495;-53
2022/04/11 04:44:39;;;;;;;9.00;4.13;;;;;;;1.91;100.00;101841.84;5048017;28;20057;-50
2022/04/11 04:47:10;;;;;;;;;;;;;;;1.90;100.00;101842.72;5048949;28;20049;-51
2022/04/11 04:49:39;;;;;;;10.07;4.95;;;;;;;1.92;100.00;101829.72;5046908;28;19921;-54
2022/04/11 04:52:08;;;;;;;8.30;4.60;;;;;;;2.02;100.00;101828.72;5048436;28;20041;-53
2022/04/11 04:54:36;;;;;;;9.23;4.82;;;;;;;1.91;100.00;101838.38;5048712;28;20553;-54
2022/04/11 04:57:05;;;;;;;8.32;4.97;;;;;;;1.89;100.00;101842.75;5048395;28;20124;-52
2022/04/11 04:59:33;;;;;;;12.75;5.82;;;;;;;1.93;100.00;101828.84;5047859;28;20480;-55
2022/04/11 05:02:01;;;;;;;10.50;4.93;;;;;;;1.90;100.00;101821.94;5047629;28;20068;-50
2022/04/11 05:04:29;;;;;;;10.07;4.93;;;;;;;1.99;100.00;101833.94;5046005;28;20077;-53
2022/04/11 05:06:59;;;;;;;8.43;5.25;;;;;;;1.96;100.00;101832.22;5047876;28;20450;-52
2022/04/11 05:09:27;;;;;;;11.00;5.13;;;;;;;2.00;100.00;101826.16;5047928;28;20103;-49
2022/04/11 05:11:55;;;;;;;12.20;5.90;;;;;;;1.99;100.00;101831.34;5047862;28;20056;-49
2022/04/11 05:14:23;;;;;;;9.88;5.55;;;;;;;2.05;100.00;101828.69;5047665;28;20064;-51
2022/04/11 05:16:51;;;;;;;10.63;6.00;;;;;;;2.02;100.00;101826.13;5047251;28;20053;-53
2022/04/11 05:19:19;;;;;;;11.05;5.97;;;;;;;2.06;100.00;101820.03;5046148;28;20049;-53
2022/04/11 05:21:47;;;;;;;10.40;5.38;;;;;;;2.10;100.00;101820.81;5048075;28;20069;-54
2022/04/11 05:24:16;;;;;;;12.27;5.75;;;;;;;2.05;100.00;101827.81;5047637;28;20454;-52
2022/04/11 05:26:44;;;;;;;9.95;6.30;;;;;;;2.06;100.00;101822.63;5047458;28;20041;-57
2022/04/11 05:29:13;;;;;;;12.05;6.53;;;;;;;2.13;100.00;101823.38;5046850;28;20197;-57
2022/04/11 05:31:41;;;;;;;10.55;5.55;;;;;;;2.18;100.00;101826.75;5047608;28;20095;-57
2022/04/11 05:34:09;;;;;;;9.82;6.28;;;;;;;2.17;100.00;101828.50;5046261;28;20136;-57
2022/04/11 05:36:37;;;;;;;11.75;6.47;;;;;;;2.20;100.00;101832.78;5048316;28;20076;-57
2022/04/11 05:39:05;;;;;;;14.98;6.45;;;;;;;2.35;100.00;101829.13;5047068;28;20045;-59
2022/04/11 05:41:35;;;;;;;10.20;6.07;;;;;;;2.30;100.00;101836.09;5047579;28;20140;-57
2022/04/11 05:44:03;;;;;;;14.02;6.53;;;;;;;2.31;100.00;101833.47;5046756;28;20049;-57
2022/04/11 05:46:31;;;;;;;11.90;6.70;;;;;;;2.38;100.00;101831.66;5047671;28;20053;-51
2022/04/11 05:48:59;;;;;;;12.27;6.90;;;;;;;2.38;100.00;101841.19;5045797;28;20073;-57
2022/04/11 05:51:27;;;;;;;10.90;7.32;;;;;;;2.45;100.00;101833.28;5047801;28;20053;-57
2022/04/11 05:53:55;;;;;;;12.63;6.88;;;;;;;2.46;100.00;101824.59;5047650;28;20056;-57
2022/04/11 05:56:23;;;;;;;13.43;6.95;;;;;;;2.50;100.00;101826.28;5046100;28;20041;-58
2022/04/11 05:58:53;;;;;;;13.10;7.05;;;;;;;2.52;100.00;101831.44;5046898;28;20475;-57
2022/04/11 06:01:21;;;;;;;12.07;6.97;;;;;;;2.56;100.00;101830.50;5047264;28;20087;-57
2022/04/11 06:03:49;;;;;;;12.60;7.32;;;;;;;2.62;100.00;101829.53;5046188;28;20048;-57
2022/04/11 06:06:18;;;;;;;12.32;7.65;;;;;;;2.62;100.00;101826.94;5047237;28;20507;-58
2022/04/11 06:08:46;;;;;;;14.20;8.10;;;;;;;2.65;100.00;101829.53;5047379;28;20040;-57
2022/04/11 06:11:14;;;;;;;18.08;8.80;;;;;;;2.65;100.00;101838.16;5047108;28;20461;-57
2022/04/11 06:13:42;;;;;;;16.83;8.73;;;;;;;2.67;100.00;101835.53;5047333;28;20064;-57
2022/04/11 06:16:12;;;;;;;13.73;7.60;;;;;;;2.69;100.00;101831.19;5046841;28;20053;-57
2022/04/11 06:18:40;;;;;;;18.58;10.43;;;;;;;2.71;100.00;101834.59;5045442;28;20064;-58
2022/04/11 06:21:08;;;;;;;13.75;8.98;;;;;;;2.78;100.00;101838.84;5046838;28;20056;-57
2022/04/11 06:23:36;;;;;;;15.65;8.65;;;;;;;2.84;100.00;101836.13;5047114;28;20131;-57
2022/04/11 06:26:05;;;;;;;15.60;8.05;;;;;;;2.88;100.00;101837.78;5047125;28;20067;-58
2022/04/11 06:28:33;;;;;;;22.45;8.73;;;;;;;2.97;100.00;101839.38;5048047;28;20048;-57
2022/04/11 06:31:01;;;;;;;15.05;8.68;;;;;;;3.03;100.00;101843.59;5050684;28;20052;-58
2022/04/11 06:33:30;;;;;;;12.63;8.70;;;;;;;3.09;100.00;101840.03;5048720;28;20147;-57
2022/04/11 06:35:58;;;;;;;15.85;8.38;;;;;;;3.17;100.00;101844.19;5050592;28;20044;-58
2022/04/11 06:38:27;;;;;;;13.80;8.88;;;;;;;3.22;100.00;101844.97;5049897;28;20045;-57
2022/04/11 06:40:56;;;;;;;12.25;7.90;;;;;;;3.28;100.00;101830.16;5050610;28;20072;-57
2022/04/11 06:43:24;;;;;;;13.32;8.45;;;;;;;3.31;100.00;101830.97;5050194;28;20131;-57
2022/04/11 06:45:53;;;;;;;10.82;7.45;;;;;;;3.38;100.00;101837.75;5050570;28;20539;-58
2022/04/11 06:48:21;;;;;;;16.83;8.30;;;;;;;3.50;100.00;101838.41;5048919;28;20083;-58
2022/04/11 06:50:51;;;;;;;13.93;8.82;;;;;;;3.61;100.00;101841.63;5050593;28;20045;-55
2022/04/11 06:53:19;;;;;;;13.43;9.00;;;;;;;3.76;100.00;101840.47;5049514;28;20045;-58
2022/04/11 06:55:48;;;;;;;14.50;8.10;;;;;;;3.89;99.09;101836.72;5050388;28;20086;-56
2022/04/11 06:58:17;;;;;;;14.10;8.52;;;;;;;3.97;99.58;101840.91;5050297;28;20072;-59
2022/04/11 07:00:45;;;;;;;15.57;8.57;;;;;;;4.07;99.18;101840.66;5050408;28;20442;-57
2022/04/11 07:03:13;;;;;;;13.05;8.60;;;;;;;4.18;99.07;101843.03;5047298;28;20063;-58
2022/04/11 07:05:42;;;;;;;12.02;7.72;;;;;;;4.35;97.95;101841.78;5050883;28;20163;-58
2022/04/11 07:08:11;;;;;;;12.57;8.13;;;;;;;4.47;97.93;101835.44;5049838;28;20053;-57
2022/04/11 07:10:40;;;;;;;12.95;9.35;;;;;;;4.69;95.00;101839.25;5050614;28;20099;-57
2022/04/11 07:13:09;;;;;;;14.80;8.70;;;;;;;4.78;95.81;101845.97;5049963;28;20048;-57
2022/04/11 07:15:37;;;;;;;12.60;8.32;;;;;;;4.92;91.53;101845.63;5048989;28;20048;-58
2022/04/11 07:18:05;;;;;;;13.05;8.98;;;;;;;5.16;92.74;101845.91;5048300;28;20400;-58
2022/04/11 07:20:34;;;;;;;14.32;8.25;;;;;;;5.28;91.56;101853.41;5049948;28;20075;-57
2022/04/11 07:23:02;;;;;;;12.00;8.10;;;;;;;5.49;86.53;101849.31;5049898;28;20488;-58
2022/04/11 07:25:31;;;;;;;13.73;8.05;;;;;;;5.59;87.02;101845.56;5048435;28;20169;-58
2022/04/11 07:27:59;;;;;;;16.02;8.32;;;;;;;5.74;85.47;101853.88;5052127;28;20404;-59
2022/04/11 07:30:27;;;;;;;15.18;9.82;;;;;;;5.88;85.84;101849.09;5052295;28;20812;-57
2022/04/11 07:32:56;;;;;;;13.02;8.13;;;;;;;6.08;87.75;101842.44;5057750;28;20809;-58
2022/04/11 07:35:24;;;;;;;14.25;8.55;;;;;;;6.34;86.69;101839.06;5058218;28;20130;-57
2022/04/11 07:37:52;;;;;;;12.88;8.18;;;;;;;6.45;84.52;101840.44;5053972;28;20065;-57
2022/04/11 07:40:20;;;;;;;13.23;8.85;;;;;;;6.61;81.46;101833.81;5055280;28;20052;-58
2022/04/11 07:42:51;;;;;;;13.43;8.60;;;;;;;6.77;83.89;101828.94;5055188;28;20798;-58
2022/04/11 07:45:19;;;;;;;11.70;7.80;;;;;;;6.99;83.46;101825.59;5056463;28;20044;-58
2022/04/11 07:47:52;;;;;;;14.85;7.82;;;;;;;7.15;81.28;101825.94;5054786;28;20122;-58
2022/04/11 07:50:20;;;;;;;10.77;6.85;;;;;;;7.39;81.46;101827.69;5058735;28;20048;-58
2022/04/11 07:52:48;;;;;;;12.90;7.03;;;;;;;7.63;82.72;101808.50;5063140;28;20033;-57
2022/04/11 07:55:21;;;;;;;12.43;6.47;;;;;;;7.80;80.11;101811.34;5060337;28;20503;-58
2022/04/11 07:57:51;;;;;;;13.18;6.68;;;;;;;8.01;78.50;101811.44;5051062;28;20114;-58
2022/04/11 08:00:22;;;;;;;12.02;7.05;;;;;;;8.21;78.33;101811.50;5060868;28;20052;-57
2022/04/11 08:02:52;;;;;;;9.32;5.93;;;;;;;8.42;77.17;101803.69;5046045;28;20041;-58
2022/04/11 08:05:20;;;;;;;14.35;6.70;;;;;;;8.63;77.31;101809.88;5055288;28;20037;-58
2022/04/11 08:07:49;;;;;;;10.57;6.28;;;;;;;8.87;76.83;101807.13;5056739;28;20843;-58
2022/04/11 08:10:17;;;;;;;12.25;6.03;;;;;;;9.05;75.71;101803.72;5055545;28;20132;-58
2022/04/11 08:12:53;;;;;;;10.88;6.45;;;;;;;9.27;75.86;101795.75;5047354;28;20049;-55
2022/04/11 08:15:23;;;;;;;11.35;6.07;;;;;;;9.48;73.60;101798.31;5050975;28;20079;-52
2022/04/11 08:17:51;;;;;;;10.05;5.85;;;;;;;9.74;71.62;101793.66;5048896;28;20036;-54
2022/04/11 08:20:19;;;;;;;10.88;5.90;;;;;;;9.92;69.84;101787.50;5047778;28;20049;-53
2022/04/11 08:22:47;;;;;;;11.90;5.32;;;;;;;10.04;67.33;101787.88;5047326;28;20049;-52
2022/04/11 08:25:15;;;;;;;9.55;4.70;;;;;;;9.93;65.28;101783.13;5048186;28;20537;-53
2022/04/11 08:27:44;;;;;;;13.43;5.90;;;;;;;10.18;65.58;101777.53;5045803;28;20045;-53
2022/04/11 08:30:14;;;;;;;9.63;5.97;;;;;;;10.52;67.21;101780.31;5047260;28;20053;-53
2022/04/11 08:32:43;;;;;;;12.95;5.40;;;;;;;10.79;66.84;101775.44;5046264;28;20049;-53
2022/04/11 08:35:12;;;;;;;9.95;5.22;;;;;;;11.08;62.99;101771.28;5047021;28;20048;-54
2022/04/11 08:37:41;;;;;;;9.20;4.85;;;;;;;11.10;61.15;101774.69;5047356;28;20045;-54
2022/04/11 08:40:11;;;;;;;10.05;5.32;;;;;;;11.14;61.66;101778.88;5047570;28;20057;-53
2022/04/11 08:42:41;;;;;;;8.20;4.90;;;;;;;11.27;60.94;101781.69;5047582;28;20049;-53
2022/04/11 08:45:13;;;;;;;15.27;7.07;;;;;;;11.30;61.24;101778.03;5046669;28;20047;-58
2022/04/11 08:47:43;;;;;;;10.48;4.85;;;;;;;11.44;60.38;101775.53;5046187;28;20040;-55
2022/04/11 08:50:13;;;;;;;10.95;5.32;;;;;;;11.80;61.26;101769.16;5047777;28;20052;-54
2022/04/11 08:52:42;;;;;;;8.05;4.57;;;;;;;12.02;57.41;101767.16;5047374;28;20492;-55
2022/04/11 08:55:11;;;;;;;11.00;4.40;;;;;;;12.24;57.23;101766.78;5047209;28;20064;-55
2022/04/11 08:57:39;;;;;;;11.00;4.40;;;;;;;12.44;58.27;101765.63;5045975;28;20137;-55
2022/04/11 09:00:10;;;;;;;9.23;4.43;;;;;;;12.54;56.16;101771.22;5046913;28;20048;-58
2022/04/11 09:02:41;;;;;;;9.45;4.55;;;;;;;12.61;56.07;101770.78;5046262;28;20045;-59
2022/04/11 09:05:12;;;;;;;9.20;4.38;;;;;;;12.84;57.53;101768.53;5047062;28;20064;-59
2022/04/11 09:07:48;;;;;;;9.95;3.97;;;;;;;13.16;55.16;101768.38;5046689;28;20048;-59
2022/04/11 09:10:19;;;;;;;7.88;4.43;;;;;;;13.43;53.51;101767.63;5046892;28;20056;-59
2022/04/11 09:12:49;;;;;;;8.82;4.22;;;;;;;13.60;52.00;101754.22;5047353;28;20045;-59
2022/04/11 09:15:18;;;;;;;8.23;4.05;;;;;;;13.63;52.86;101766.38;5046421;28;20045;-59
2022/04/11 09:17:47;;;;;;;7.15;4.22;;;;;;;13.77;52.80;101752.28;5045471;28;20577;-59
2022/04/11 09:20:18;;;;;;;7.40;3.33;;;;;;;14.07;51.07;101754.75;5047455;28;20044;-60
2022/04/11 09:22:47;;;;;;;9.52;4.03;;;;;;;14.31;49.55;101754.91;5046495;28;20053;-59
2022/04/11 09:25:17;;;;;;;7.40;3.50;;;;;;;14.12;49.78;101751.78;5046848;28;20053;-59
2022/04/11 09:27:46;;;;;;;8.15;3.80;;;;;;;13.95;48.83;101751.09;5046857;28;20060;-58
2022/04/11 09:30:22;;;;;;;7.60;3.72;;;;;;;14.28;49.39;101751.63;5046540;28;20808;-59
2022/04/11 09:32:52;;;;;;;7.60;3.28;;;;;;;14.42;45.49;101750.72;5043995;28;20053;-59
2022/04/11 09:35:22;;;;;;;8.52;3.80;;;;;;;14.62;48.04;101752.84;5047273;28;20052;-58
2022/04/11 09:38:06;;;;;;;6.55;3.35;;;;;;;14.78;48.12;101754.47;5046515;28;20144;-59
2022/04/11 09:40:42;;;;;;;7.68;3.58;;;;;;;14.87;44.94;101745.91;5046828;28;20389;-59
2022/04/11 09:43:12;;;;;;;6.53;3.72;;;;;;;14.95;44.64;101740.91;5046508;28;20055;-59
2022/04/11 09:45:44;;;;;;;7.72;3.05;;;;;;;14.65;46.11;101743.88;5046581;28;20052;-59
2022/04/11 09:48:16;;;;;;;;;;;;;;;14.97;46.80;101736.38;5045223;28;20072;-58
2022/04/11 09:50:47;;;;;;;6.13;2.78;;;;;;;15.13;46.51;101732.66;5046723;28;19931;-58
2022/04/11 09:53:17;;;;;;;5.90;2.78;;;;;;;15.39;46.36;101733.44;5045494;28;20453;-58
2022/04/11 09:55:47;;;;;;;7.70;3.22;;;;;;;15.21;45.14;101722.34;5046690;28;20581;-59
2022/04/11 09:58:17;;;;;;;8.05;3.60;;;;;;;15.62;46.02;101723.81;5046510;28;20078;-59
2022/04/11 10:00:45;;;;;;;6.05;2.88;;;;;;;15.55;43.93;101722.59;5046010;28;20443;-58
2022/04/11 10:03:14;;;;;;;5.85;2.63;;;;;;;15.72;45.12;101724.84;5044370;28;20091;-59
2022/04/11 10:05:42;;;;;;;8.75;3.38;;;;;;;16.06;43.74;101710.94;5049780;28;20492;-59
2022/04/11 10:08:13;;;;;;;6.70;2.80;;;;;;;15.94;44.20;101712.69;5050771;28;20057;-59
2022/04/11 10:10:42;;;;;;;5.93;2.75;;;;;;;16.05;40.94;101718.03;5049568;28;20059;-59
2022/04/11 10:13:12;;;;;;;8.45;2.80;;;;;;;15.68;41.80;101722.56;5050371;28;20048;-59
2022/04/11 10:15:43;;;;;;;7.57;2.78;;;;;;;15.91;42.66;101717.38;5050623;28;20095;-59
2022/04/11 10:18:14;;;;;;;6.55;2.80;;;;;;;16.15;41.59;101704.09;5049038;28;20389;-59
2022/04/11 10:20:45;;;;;;;6.38;2.55;;;;;;;15.87;40.13;101708.81;5049415;28;20055;-59
2022/04/11 10:23:41;;;;;;;6.65;2.88;;;;;;;16.21;41.89;101715.09;5050050;28;20053;-59
2022/04/11 10:26:15;;;;;;;6.47;3.17;;;;;;;16.02;39.25;101704.16;5050013;28;20049;-59
2022/04/11 10:28:46;;;;;;;7.78;3.83;;;;;;;15.95;38.61;101698.50;5049388;28;20045;-59
2022/04/11 10:31:16;;;;;;;7.15;3.42;;;;;;;16.08;39.43;101700.22;5049971;28;20053;-58
2022/04/11 10:33:49;;;;;;;6.72;2.72;;;;;;;15.93;39.22;101705.69;5048653;28;20068;-59
2022/04/11 10:36:35;;;;;;;8.00;3.08;;;;;;;15.61;38.68;101695.63;5050290;28;20040;-59
2022/04/11 10:39:25;;;;;;;7.93;3.05;;;;;;;15.99;38.77;101685.81;5050086;28;20048;-58
2022/04/11 10:42:14;;;;;;;7.45;3.00;;;;;;;16.01;39.69;101690.06;5050007;28;20061;-59
2022/04/11 10:44:43;;;;;;;7.28;3.45;;;;;;;16.29;39.34;101695.94;5050227;28;20048;-59
2022/04/11 10:47:29;;;;;;;7.40;3.33;;;;;;;16.31;38.35;101686.03;5050372;28;20044;-59
2022/04/11 10:50:24;;;;;;;7.43;3.10;;;;;;;16.40;38.36;101681.84;5049313;28;20049;-59
2022/04/11 10:53:27;;;;;;;7.90;3.03;;;;;;;16.72;38.90;101684.66;5050167;28;20037;-56
2022/04/11 10:56:08;;;;;;;6.10;2.92;;;;;;;17.00;35.52;101674.56;5041885;28;20081;-56
2022/04/11 10:58:46;;;;;;;6.38;2.95;;;;;;;16.88;37.57;101676.34;5049913;28;20060;-57
2022/04/11 11:01:14;;;;;;;8.32;3.60;;;;;;;17.06;37.79;101678.53;5049295;28;20056;-56
2022/04/11 11:03:58;;;;;;;7.82;3.67;;;;;;;17.27;36.83;101665.31;5048753;28;20087;-56
2022/04/11 11:06:26;;;;;;;7.72;3.53;;;;;;;17.10;36.90;101671.16;5049918;28;20083;-55
2022/04/11 11:08:54;;;;;;;8.48;3.30;;;;;;;16.99;34.24;101670.22;5049660;28;20076;-56
2022/04/11 11:11:26;;;;;;;7.72;3.25;;;;;;;16.99;34.79;101670.22;5050003;28;20052;-56
2022/04/11 11:13:56;;;;;;;5.88;3.25;;;;;;;17.23;35.29;101669.19;5049562;28;20045;-56
2022/04/11 11:16:39;;;;;;;8.57;3.80;;;;;;;16.97;35.30;101672.13;5049274;28;20053;-55
2022/04/11 11:19:22;;;;;;;7.25;3.90;;;;;;;17.53;36.35;101663.22;5048163;28;20056;-56
2022/04/11 11:22:09;;;;;;;9.93;4.38;;;;;;;17.36;35.33;101659.28;5049693;28;20049;-56
2022/04/11 11:24:37;;;;;;;8.38;3.60;;;;;;;17.84;35.30;101647.38;5050091;28;20044;-55
2022/04/11 11:27:08;;;;;;;7.60;3.67;;;;;;;18.24;35.86;101643.19;5056403;28;20041;-55
2022/04/11 11:29:43;;;;;;;8.93;4.05;;;;;;;18.29;37.18;101641.00;5057783;28;20567;-56
2022/04/11 11:32:13;;;;;;;8.80;4.20;;;;;;;17.95;35.71;101638.53;5056697;28;20071;-55
2022/04/11 11:34:43;;;;;;;8.20;3.95;;;;;;;18.18;35.40;101633.09;5056786;28;20534;-55
2022/04/11 11:37:13;;;;;;;8.30;3.67;;;;;;;17.87;35.20;101625.00;5060038;28;20119;-56